Time;durP1;ratioP1;P1;durP2;ratioP2;P2;SDS_P1;SDS_P2;PMS_P1;PMS_P2;Temp;Humidity;BMP_temperature;BMP_pressure;BME280_temperature;BME280_humidity;BME280_pressure;Samples;Min_cycle;Max_cycle;Signal;HPM_P1;HPM_P2
2022/12/09 00:00:37;;;;;;;0.80;0.80;;;;;;;;;;1859031;75;26226;-37
2022/12/09 00:03:04;;;;;;;0.70;0.70;;;;;;;;;;1861477;75;26207;-40
2022/12/09 00:05:31;;;;;;;0.70;0.70;;;;;;;;;;1864500;75;26304;-47
2022/12/09 00:07:59;;;;;;;0.70;0.70;;;;;;;;;;1873860;75;26691;-39
2022/12/09 00:10:26;;;;;;;0.68;0.68;;;;;;;;;;1872123;75;26753;-47
2022/12/09 00:12:54;;;;;;;0.78;0.78;;;;;;;;;;1870281;75;26741;-39
2022/12/09 00:15:22;;;;;;;0.80;0.80;;;;;;;;;;1872229;75;26608;-44
2022/12/09 00:17:49;;;;;;;1.47;0.80;;;;;;;;;;1873016;75;26206;-39
2022/12/09 00:20:16;;;;;;;0.70;0.70;;;;;;;;;;1871454;75;26209;-39
2022/12/09 00:22:43;;;;;;;0.82;0.82;;;;;;;;;;1872849;75;26633;-53
2022/12/09 00:25:11;;;;;;;0.78;0.78;;;;;;;;;;1871902;75;26252;-40
2022/12/09 00:27:38;;;;;;;0.70;0.70;;;;;;;;;;1872249;75;26249;-40
2022/12/09 00:30:06;;;;;;;0.80;0.80;;;;;;;;;;1870461;75;26230;-38
2022/12/09 00:32:33;;;;;;;0.80;0.80;;;;;;;;;;1869434;75;26203;-47
2022/12/09 00:35:00;;;;;;;1.10;0.70;;;;;;;;;;1869274;75;26579;-41
2022/12/09 00:37:27;;;;;;;0.70;0.70;;;;;;;;;;1872448;75;26205;-39
2022/12/09 00:39:55;;;;;;;0.65;0.65;;;;;;;;;;1874103;75;26253;-41
2022/12/09 00:42:22;;;;;;;0.75;0.75;;;;;;;;;;1872806;75;26970;-37
2022/12/09 00:44:49;;;;;;;1.32;0.70;;;;;;;;;;1873698;75;26619;-37
2022/12/09 00:47:16;;;;;;;0.90;0.90;;;;;;;;;;1871315;75;26599;-44
2022/12/09 00:49:44;;;;;;;0.70;0.70;;;;;;;;;;1873059;75;26631;-39
2022/12/09 00:52:11;;;;;;;0.80;0.80;;;;;;;;;;1872394;75;26320;-37
2022/12/09 00:54:38;;;;;;;0.60;0.60;;;;;;;;;;1872648;75;26155;-45
2022/12/09 00:57:05;;;;;;;0.70;0.70;;;;;;;;;;1871691;75;26259;-46
2022/12/09 00:59:33;;;;;;;0.90;0.90;;;;;;;;;;1873183;75;26163;-39
2022/12/09 01:02:00;;;;;;;0.80;0.80;;;;;;;;;;1868747;75;26201;-40
2022/12/09 01:04:27;;;;;;;0.70;0.70;;;;;;;;;;1873349;75;26195;-41
2022/12/09 01:06:54;;;;;;;0.70;0.70;;;;;;;;;;1872604;75;26324;-38
2022/12/09 01:09:22;;;;;;;0.70;0.70;;;;;;;;;;1872706;75;26725;-37
2022/12/09 01:11:49;;;;;;;0.80;0.80;;;;;;;;;;1873920;75;26259;-37
2022/12/09 01:14:16;;;;;;;0.78;0.78;;;;;;;;;;1870119;75;26217;-37
2022/12/09 01:16:43;;;;;;;0.80;0.80;;;;;;;;;;1874373;75;26191;-42
2022/12/09 01:19:13;;;;;;;0.80;0.80;;;;;;;;;;1881403;75;26143;-41
2022/12/09 01:21:40;;;;;;;0.82;0.82;;;;;;;;;;1868209;75;26159;-41
2022/12/09 01:24:08;;;;;;;0.82;0.82;;;;;;;;;;1873994;75;26197;-49
2022/12/09 01:26:36;;;;;;;0.82;0.82;;;;;;;;;;1872375;75;26236;-46
2022/12/09 01:29:03;;;;;;;0.70;0.70;;;;;;;;;;1874900;75;26303;-49
2022/12/09 01:31:31;;;;;;;0.70;0.70;;;;;;;;;;1863934;75;26210;-46
2022/12/09 01:33:58;;;;;;;0.88;0.88;;;;;;;;;;1873343;75;26201;-45
2022/12/09 01:36:27;;;;;;;0.80;0.80;;;;;;;;;;1871778;75;26195;-37
2022/12/09 01:38:55;;;;;;;0.80;0.80;;;;;;;;;;1872983;75;26283;-40
2022/12/09 01:41:23;;;;;;;0.85;0.85;;;;;;;;;;1873694;75;26839;-37
2022/12/09 01:44:07;;;;;;;0.80;0.80;;;;;;;;;;1874806;75;26147;-41
2022/12/09 01:46:35;;;;;;;0.70;0.70;;;;;;;;;;1874472;75;26172;-38
2022/12/09 01:49:02;;;;;;;0.80;0.80;;;;;;;;;;1874915;75;26171;-45
2022/12/09 01:51:29;;;;;;;0.88;0.88;;;;;;;;;;1873082;75;26767;-40
2022/12/09 01:53:57;;;;;;;0.70;0.70;;;;;;;;;;1872555;75;26147;-37
2022/12/09 01:56:25;;;;;;;0.80;0.80;;;;;;;;;;1873382;75;26256;-46
2022/12/09 01:58:53;;;;;;;0.80;0.80;;;;;;;;;;1872257;75;26201;-51
2022/12/09 02:01:21;;;;;;;0.70;0.70;;;;;;;;;;1874959;75;26174;-37
2022/12/09 02:03:48;;;;;;;0.80;0.80;;;;;;;;;;1873974;75;26155;-44
2022/12/09 02:06:16;;;;;;;0.90;0.90;;;;;;;;;;1872420;75;26179;-55
2022/12/09 02:08:44;;;;;;;0.88;0.88;;;;;;;;;;1865207;75;26215;-43
2022/12/09 02:11:13;;;;;;;0.90;0.90;;;;;;;;;;1864103;75;26210;-47
2022/12/09 02:13:41;;;;;;;0.70;0.70;;;;;;;;;;1864291;75;26260;-35
2022/12/09 02:16:10;;;;;;;0.80;0.80;;;;;;;;;;1867815;75;26163;-42
2022/12/09 02:18:42;;;;;;;0.80;0.80;;;;;;;;;;1864193;75;26225;-39
2022/12/09 02:21:13;;;;;;;0.88;0.88;;;;;;;;;;1865571;75;26238;-38
2022/12/09 02:23:42;;;;;;;0.75;0.75;;;;;;;;;;1864898;75;26236;-38
2022/12/09 02:26:14;;;;;;;0.90;0.90;;;;;;;;;;1865743;75;26221;-44
2022/12/09 02:28:51;;;;;;;0.70;0.70;;;;;;;;;;1864869;75;26587;-38
2022/12/09 02:31:32;;;;;;;0.82;0.82;;;;;;;;;;1857368;75;26950;-38
2022/12/09 02:34:04;;;;;;;0.80;0.80;;;;;;;;;;1864699;75;26276;-43
2022/12/09 02:36:33;;;;;;;0.93;0.80;;;;;;;;;;1866920;75;26233;-37
2022/12/09 02:39:00;;;;;;;0.93;0.88;;;;;;;;;;1864148;75;26260;-42
2022/12/09 02:41:29;;;;;;;1.10;0.90;;;;;;;;;;1862440;75;26171;-40
2022/12/09 02:43:57;;;;;;;0.62;0.62;;;;;;;;;;1864619;75;26221;-41
2022/12/09 02:46:25;;;;;;;0.70;0.70;;;;;;;;;;1863273;75;26324;-41
2022/12/09 02:48:54;;;;;;;0.80;0.80;;;;;;;;;;1865307;75;26151;-42
2022/12/09 02:51:22;;;;;;;0.80;0.80;;;;;;;;;;1862964;75;26293;-37
2022/12/09 02:53:50;;;;;;;0.80;0.80;;;;;;;;;;1862553;75;26550;-41
2022/12/09 02:56:18;;;;;;;0.90;0.90;;;;;;;;;;1861214;75;26596;-39
2022/12/09 02:58:45;;;;;;;0.78;0.78;;;;;;;;;;1861216;75;26216;-38
2022/12/09 03:01:20;;;;;;;0.70;0.60;;;;;;;;;;1864706;75;26199;-38
2022/12/09 03:03:47;;;;;;;0.75;0.75;;;;;;;;;;1862405;75;26620;-37
2022/12/09 03:06:16;;;;;;;0.93;0.75;;;;;;;;;;1867770;75;26277;-36
2022/12/09 03:08:54;;;;;;;1.10;0.70;;;;;;;;;;1869338;75;26801;-41
2022/12/09 03:11:23;;;;;;;0.80;0.80;;;;;;;;;;1874351;75;26198;-39
2022/12/09 03:13:52;;;;;;;0.80;0.80;;;;;;;;;;1874046;75;26160;-38
2022/12/09 03:16:21;;;;;;;0.70;0.70;;;;;;;;;;1873344;75;26601;-41
2022/12/09 03:18:50;;;;;;;0.80;0.80;;;;;;;;;;1871164;75;26603;-40
2022/12/09 03:21:18;;;;;;;0.70;0.70;;;;;;;;;;1874851;75;26718;-39
2022/12/09 03:23:46;;;;;;;0.70;0.70;;;;;;;;;;1874894;75;26584;-52
2022/12/09 03:26:14;;;;;;;0.70;0.70;;;;;;;;;;1870461;75;26241;-36
2022/12/09 03:28:43;;;;;;;0.68;0.68;;;;;;;;;;1870700;75;26627;-37
2022/12/09 03:31:12;;;;;;;0.70;0.70;;;;;;;;;;1874591;75;26300;-42
2022/12/09 03:33:40;;;;;;;0.62;0.62;;;;;;;;;;1873457;75;26209;-37
2022/12/09 03:36:09;;;;;;;0.60;0.60;;;;;;;;;;1874910;75;26952;-40
2022/12/09 03:38:37;;;;;;;0.70;0.70;;;;;;;;;;1875091;75;26631;-38
2022/12/09 03:41:06;;;;;;;0.85;0.70;;;;;;;;;;1874166;75;26201;-39
2022/12/09 03:43:35;;;;;;;0.70;0.70;;;;;;;;;;1871232;75;26855;-42
2022/12/09 03:46:02;;;;;;;0.70;0.70;;;;;;;;;;1871348;75;26201;-41
2022/12/09 03:48:30;;;;;;;0.70;0.70;;;;;;;;;;1873571;75;26182;-37
2022/12/09 03:51:15;;;;;;;0.60;0.60;;;;;;;;;;1874971;75;26207;-40
2022/12/09 03:53:44;;;;;;;0.60;0.60;;;;;;;;;;1873512;75;26260;-38
2022/12/09 03:56:12;;;;;;;0.60;0.60;;;;;;;;;;1873141;75;26240;-39
2022/12/09 03:58:41;;;;;;;0.60;0.60;;;;;;;;;;1856428;75;26310;-38
2022/12/09 04:01:08;;;;;;;0.60;0.60;;;;;;;;;;1874673;75;26580;-49
2022/12/09 04:03:37;;;;;;;0.50;0.50;;;;;;;;;;1866836;75;26280;-36
2022/12/09 04:06:04;;;;;;;0.60;0.60;;;;;;;;;;1874630;75;26210;-41
2022/12/09 04:08:31;;;;;;;0.70;0.70;;;;;;;;;;1872930;75;26327;-43
2022/12/09 04:10:59;;;;;;;0.70;0.70;;;;;;;;;;1873196;75;26261;-40
2022/12/09 04:13:26;;;;;;;0.70;0.70;;;;;;;;;;1874907;75;26180;-37
2022/12/09 04:15:53;;;;;;;0.68;0.68;;;;;;;;;;1871859;75;26252;-40
2022/12/09 04:18:20;;;;;;;0.60;0.60;;;;;;;;;;1873255;75;26197;-43
2022/12/09 04:20:47;;;;;;;0.65;0.65;;;;;;;;;;1863784;75;26288;-43
2022/12/09 04:23:15;;;;;;;0.70;0.70;;;;;;;;;;1874910;75;26170;-41
2022/12/09 04:25:42;;;;;;;0.50;0.50;;;;;;;;;;1873733;75;26196;-36
2022/12/09 04:28:09;;;;;;;0.68;0.68;;;;;;;;;;1872869;75;26697;-39
2022/12/09 04:30:37;;;;;;;0.60;0.60;;;;;;;;;;1874720;75;26643;-46
2022/12/09 04:33:04;;;;;;;0.50;0.50;;;;;;;;;;1873382;75;26225;-36
2022/12/09 04:35:31;;;;;;;0.62;0.62;;;;;;;;;;1873088;75;26264;-38
2022/12/09 04:37:58;;;;;;;0.60;0.60;;;;;;;;;;1874762;75;26170;-40
2022/12/09 04:40:26;;;;;;;0.57;0.57;;;;;;;;;;1875004;75;26267;-37
2022/12/09 04:42:54;;;;;;;0.60;0.60;;;;;;;;;;1874224;75;26336;-44
2022/12/09 04:45:24;;;;;;;0.53;0.53;;;;;;;;;;1874189;75;26279;-37
2022/12/09 04:47:51;;;;;;;0.70;0.70;;;;;;;;;;1874187;75;26225;-37
2022/12/09 04:50:19;;;;;;;0.70;0.70;;;;;;;;;;1872333;75;26225;-40
2022/12/09 04:52:46;;;;;;;0.70;0.70;;;;;;;;;;1874868;75;26196;-43
2022/12/09 04:55:14;;;;;;;0.40;0.40;;;;;;;;;;1875178;75;26171;-41
2022/12/09 04:57:41;;;;;;;0.60;0.60;;;;;;;;;;1873928;75;26197;-44
2022/12/09 05:00:09;;;;;;;0.70;0.70;;;;;;;;;;1874158;75;26269;-41
2022/12/09 05:02:37;;;;;;;0.50;0.50;;;;;;;;;;1869677;75;26182;-40
2022/12/09 05:05:04;;;;;;;0.60;0.60;;;;;;;;;;1873257;75;26242;-37
2022/12/09 05:07:31;;;;;;;0.60;0.60;;;;;;;;;;1868076;75;26272;-40
2022/12/09 05:09:59;;;;;;;0.50;0.50;;;;;;;;;;1869565;75;26686;-38
2022/12/09 05:12:26;;;;;;;0.60;0.60;;;;;;;;;;1862956;75;26215;-40
2022/12/09 05:14:53;;;;;;;0.60;0.60;;;;;;;;;;1865348;75;26210;-42
2022/12/09 05:17:20;;;;;;;0.47;0.47;;;;;;;;;;1867527;75;26260;-36
2022/12/09 05:19:48;;;;;;;0.60;0.60;;;;;;;;;;1870485;75;26160;-48
2022/12/09 05:22:16;;;;;;;0.50;0.50;;;;;;;;;;1866522;75;26253;-36
2022/12/09 05:24:45;;;;;;;0.42;0.42;;;;;;;;;;1863847;75;26163;-45
2022/12/09 05:27:13;;;;;;;0.50;0.50;;;;;;;;;;1866027;75;26202;-37
2022/12/09 05:29:40;;;;;;;0.50;0.50;;;;;;;;;;1867606;75;26152;-37
2022/12/09 05:32:08;;;;;;;0.50;0.50;;;;;;;;;;1867662;75;26167;-57
2022/12/09 05:34:35;;;;;;;0.60;0.60;;;;;;;;;;1867980;75;26230;-41
2022/12/09 05:37:02;;;;;;;0.60;0.60;;;;;;;;;;1864648;75;26723;-41
2022/12/09 05:39:30;;;;;;;0.50;0.50;;;;;;;;;;1868037;75;26155;-38
2022/12/09 05:41:57;;;;;;;0.57;0.57;;;;;;;;;;1866320;75;26158;-45
2022/12/09 05:44:24;;;;;;;0.62;0.62;;;;;;;;;;1866594;75;26168;-36
2022/12/09 05:46:51;;;;;;;0.60;0.60;;;;;;;;;;1868021;75;26284;-37
2022/12/09 05:49:19;;;;;;;0.70;0.70;;;;;;;;;;1859603;75;26296;-43
2022/12/09 05:51:46;;;;;;;0.50;0.50;;;;;;;;;;1863531;75;26238;-43
2022/12/09 05:54:13;;;;;;;0.98;0.98;;;;;;;;;;1863242;75;26334;-45
2022/12/09 05:56:40;;;;;;;0.50;0.50;;;;;;;;;;1858962;75;26701;-41
2022/12/09 05:59:08;;;;;;;0.50;0.50;;;;;;;;;;1862380;75;26936;-42
2022/12/09 06:01:36;;;;;;;0.50;0.50;;;;;;;;;;1866048;75;26307;-41
2022/12/09 06:04:03;;;;;;;0.50;0.50;;;;;;;;;;1865947;75;26271;-38
2022/12/09 06:06:30;;;;;;;0.65;0.65;;;;;;;;;;1859337;75;26198;-53
2022/12/09 06:08:59;;;;;;;0.80;0.80;;;;;;;;;;1867547;75;26862;-42
2022/12/09 06:11:26;;;;;;;1.55;1.20;;;;;;;;;;1871074;75;26175;-37
2022/12/09 06:13:54;;;;;;;1.72;1.40;;;;;;;;;;1871679;75;26288;-41
2022/12/09 06:16:22;;;;;;;1.95;1.50;;;;;;;;;;1869610;75;26263;-37
2022/12/09 06:18:49;;;;;;;2.45;2.20;;;;;;;;;;1869841;75;26624;-40
2022/12/09 06:21:17;;;;;;;3.90;2.55;;;;;;;;;;1873716;75;26277;-43
2022/12/09 06:23:44;;;;;;;3.02;2.83;;;;;;;;;;1867313;75;26713;-50
2022/12/09 06:26:13;;;;;;;2.98;2.87;;;;;;;;;;1870295;75;26247;-43
2022/12/09 06:28:40;;;;;;;3.40;3.17;;;;;;;;;;1873237;75;26225;-40
2022/12/09 06:31:08;;;;;;;3.35;3.15;;;;;;;;;;1874936;75;26211;-42
2022/12/09 06:33:35;;;;;;;3.60;3.30;;;;;;;;;;1874516;75;26205;-41
2022/12/09 06:36:03;;;;;;;4.45;3.45;;;;;;;;;;1873363;75;26224;-41
2022/12/09 06:38:30;;;;;;;4.95;3.62;;;;;;;;;;1874658;75;26275;-36
2022/12/09 06:40:57;;;;;;;5.28;3.77;;;;;;;;;;1871882;75;26167;-46
2022/12/09 06:43:25;;;;;;;7.65;4.05;;;;;;;;;;1872347;75;26682;-41
2022/12/09 06:45:52;;;;;;;7.47;3.92;;;;;;;;;;1871606;75;26202;-48
2022/12/09 06:48:19;;;;;;;7.45;3.92;;;;;;;;;;1869492;75;26232;-41
2022/12/09 06:50:46;;;;;;;10.90;4.20;;;;;;;;;;1874372;75;26179;-37
2022/12/09 06:53:14;;;;;;;6.65;3.55;;;;;;;;;;1873043;75;26295;-41
2022/12/09 06:55:41;;;;;;;5.60;3.70;;;;;;;;;;1875087;75;26202;-40
2022/12/09 06:58:08;;;;;;;7.35;3.65;;;;;;;;;;1872306;75;26195;-38
2022/12/09 07:00:35;;;;;;;8.55;3.50;;;;;;;;;;1872086;75;26197;-42
2022/12/09 07:03:03;;;;;;;7.37;3.65;;;;;;;;;;1870788;75;26713;-42
2022/12/09 07:05:31;;;;;;;5.33;3.10;;;;;;;;;;1867874;75;26740;-38
2022/12/09 07:07:58;;;;;;;4.90;3.20;;;;;;;;;;1867656;75;26230;-48
2022/12/09 07:10:26;;;;;;;4.12;2.83;;;;;;;;;;1850163;75;26987;-36
2022/12/09 07:12:53;;;;;;;5.08;3.02;;;;;;;;;;1840835;77;26207;-41
2022/12/09 07:15:24;;;;;;;3.12;2.40;;;;;;;;;;1834970;77;26197;-38
2022/12/09 07:17:49;;;;;;;5.40;2.50;;;;;;;;;;1841506;77;26717;-38
2022/12/09 07:20:16;;;;;;;2.90;2.22;;;;;;;;;;1835191;77;27089;-44
2022/12/09 07:22:43;;;;;;;3.00;2.30;;;;;;;;;;1831374;77;26604;-36
2022/12/09 07:25:11;;;;;;;2.85;2.20;;;;;;;;;;1842880;77;26178;-41
2022/12/09 07:27:39;;;;;;;3.08;2.17;;;;;;;;;;1848599;77;26334;-40
2022/12/09 07:30:06;;;;;;;2.30;2.10;;;;;;;;;;1837918;77;26279;-39
2022/12/09 07:32:34;;;;;;;2.72;1.90;;;;;;;;;;1836150;77;26197;-44
2022/12/09 07:35:01;;;;;;;1.80;1.67;;;;;;;;;;1835152;77;26182;-39
2022/12/09 07:37:28;;;;;;;3.27;1.60;;;;;;;;;;1842310;77;26205;-36
2022/12/09 07:39:55;;;;;;;2.67;1.70;;;;;;;;;;1834828;77;26210;-42
2022/12/09 07:42:23;;;;;;;1.75;1.65;;;;;;;;;;1843864;77;26197;-42
2022/12/09 07:44:50;;;;;;;1.60;1.50;;;;;;;;;;1836567;77;26206;-40
2022/12/09 07:47:17;;;;;;;1.40;1.30;;;;;;;;;;1836199;77;26267;-49
2022/12/09 07:49:44;;;;;;;1.52;1.35;;;;;;;;;;1830967;77;26804;-46
2022/12/09 07:52:12;;;;;;;1.50;1.40;;;;;;;;;;1825851;77;26654;-48
2022/12/09 07:54:39;;;;;;;2.58;1.40;;;;;;;;;;1832316;77;26201;-42
2022/12/09 07:57:06;;;;;;;1.32;1.20;;;;;;;;;;1823666;77;26229;-43
2022/12/09 07:59:34;;;;;;;1.12;1.00;;;;;;;;;;1828655;77;26320;-49
2022/12/09 08:02:02;;;;;;;2.05;1.10;;;;;;;;;;1821037;77;29005;-44
2022/12/09 08:04:30;;;;;;;1.25;1.20;;;;;;;;;;1824634;77;26271;-45
2022/12/09 08:06:58;;;;;;;0.90;0.90;;;;;;;;;;1819713;77;28159;-47
2022/12/09 08:09:25;;;;;;;1.87;0.85;;;;;;;;;;1825633;77;26627;-56
2022/12/09 08:11:52;;;;;;;3.00;1.10;;;;;;;;;;1825565;77;27361;-42
2022/12/09 08:14:20;;;;;;;1.95;0.90;;;;;;;;;;1825212;77;26726;-39
2022/12/09 08:16:47;;;;;;;0.88;0.88;;;;;;;;;;1826913;77;26583;-41
2022/12/09 08:19:14;;;;;;;0.80;0.80;;;;;;;;;;1826626;77;26622;-38
2022/12/09 08:21:41;;;;;;;3.08;0.80;;;;;;;;;;1826421;77;26356;-38
2022/12/09 08:24:10;;;;;;;0.72;0.70;;;;;;;;;;1825536;78;26165;-40
2022/12/09 08:26:38;;;;;;;0.90;0.90;;;;;;;;;;1826066;77;26230;-44
2022/12/09 08:29:09;;;;;;;1.82;0.78;;;;;;;;;;1826022;78;26209;-43
2022/12/09 08:31:36;;;;;;;1.00;0.78;;;;;;;;;;1826107;77;26290;-51
2022/12/09 08:34:04;;;;;;;0.80;0.80;;;;;;;;;;1825375;78;26997;-44
2022/12/09 08:36:32;;;;;;;1.65;0.80;;;;;;;;;;1826542;77;26254;-45
2022/12/09 08:39:00;;;;;;;0.72;0.72;;;;;;;;;;1825980;78;26247;-45
2022/12/09 08:41:34;;;;;;;0.70;0.70;;;;;;;;;;1825998;77;26279;-43
2022/12/09 08:44:02;;;;;;;0.70;0.70;;;;;;;;;;1827081;77;26811;-39
2022/12/09 08:46:30;;;;;;;1.25;0.60;;;;;;;;;;1825369;77;26206;-41
2022/12/09 08:48:57;;;;;;;0.78;0.78;;;;;;;;;;1817508;77;28214;-39
2022/12/09 08:51:24;;;;;;;0.70;0.70;;;;;;;;;;1823243;77;28239;-44
2022/12/09 08:53:51;;;;;;;1.85;0.70;;;;;;;;;;1825026;77;26265;-39
2022/12/09 08:56:19;;;;;;;1.87;0.70;;;;;;;;;;1826024;77;26540;-45
2022/12/09 08:58:47;;;;;;;1.55;0.70;;;;;;;;;;1826029;77;26228;-39
2022/12/09 09:01:15;;;;;;;0.53;0.53;;;;;;;;;;1823698;77;26217;-44
2022/12/09 09:03:43;;;;;;;3.25;0.65;;;;;;;;;;1826453;77;26639;-46
2022/12/09 09:06:10;;;;;;;0.55;0.55;;;;;;;;;;1823635;77;26286;-49
2022/12/09 09:08:38;;;;;;;0.60;0.60;;;;;;;;;;1825694;77;26225;-49
2022/12/09 09:11:09;;;;;;;0.53;0.53;;;;;;;;;;1818382;77;26325;-43
2022/12/09 09:13:38;;;;;;;0.70;0.70;;;;;;;;;;1798696;78;26210;-39
2022/12/09 09:16:06;;;;;;;0.50;0.50;;;;;;;;;;1796064;78;26226;-39
2022/12/09 09:18:34;;;;;;;0.50;0.50;;;;;;;;;;1800984;78;26263;-36
2022/12/09 09:21:01;;;;;;;3.45;0.60;;;;;;;;;;1801992;78;26327;-41
2022/12/09 09:23:28;;;;;;;0.70;0.70;;;;;;;;;;1800531;78;26965;-40
2022/12/09 09:25:55;;;;;;;0.60;0.60;;;;;;;;;;1802248;78;26866;-40
2022/12/09 09:28:23;;;;;;;0.50;0.50;;;;;;;;;;1796530;78;26728;-48
2022/12/09 09:30:51;;;;;;;0.62;0.62;;;;;;;;;;1798296;78;26765;-38
2022/12/09 09:33:19;;;;;;;0.65;0.65;;;;;;;;;;1797470;78;26352;-37
2022/12/09 09:35:47;;;;;;;0.57;0.57;;;;;;;;;;1798748;78;26329;-43
2022/12/09 09:38:15;;;;;;;1.27;0.60;;;;;;;;;;1800957;78;26206;-43
2022/12/09 09:40:42;;;;;;;1.07;0.60;;;;;;;;;;1799637;78;26228;-40
2022/12/09 09:43:11;;;;;;;0.65;0.65;;;;;;;;;;1798428;78;26633;-38
2022/12/09 09:45:38;;;;;;;0.60;0.60;;;;;;;;;;1804321;78;26232;-42
2022/12/09 09:48:06;;;;;;;0.60;0.60;;;;;;;;;;1799257;78;26703;-44
2022/12/09 09:50:50;;;;;;;0.65;0.62;;;;;;;;;;1796415;78;26179;-35
2022/12/09 09:53:21;;;;;;;2.25;0.60;;;;;;;;;;1766744;79;26333;-36
2022/12/09 09:55:50;;;;;;;0.70;0.70;;;;;;;;;;1788889;78;26290;-42
2022/12/09 09:58:19;;;;;;;0.50;0.50;;;;;;;;;;1796026;78;26261;-37
2022/12/09 10:00:51;;;;;;;0.50;0.50;;;;;;;;;;1803786;78;26759;-44
2022/12/09 10:03:25;;;;;;;0.60;0.60;;;;;;;;;;1799683;78;26665;-48
2022/12/09 10:05:54;;;;;;;0.60;0.60;;;;;;;;;;1801009;78;26219;-39
2022/12/09 10:08:26;;;;;;;0.60;0.60;;;;;;;;;;1799903;78;26774;-40
2022/12/09 10:11:09;;;;;;;1.42;0.60;;;;;;;;;;1805395;77;26232;-44
2022/12/09 10:13:50;;;;;;;0.50;0.50;;;;;;;;;;1853721;75;26722;-42
2022/12/09 10:16:25;;;;;;;0.88;0.50;;;;;;;;;;1852090;76;26305;-36
2022/12/09 10:19:06;;;;;;;0.40;0.40;;;;;;;;;;1853734;76;26537;-40
2022/12/09 10:21:35;;;;;;;0.35;0.35;;;;;;;;;;1852862;75;26187;-39
2022/12/09 10:24:04;;;;;;;0.60;0.60;;;;;;;;;;1856437;75;26250;-39
2022/12/09 10:26:31;;;;;;;1.90;0.60;;;;;;;;;;1857571;76;26207;-37
2022/12/09 10:29:00;;;;;;;0.50;0.50;;;;;;;;;;1855714;76;26735;-46
2022/12/09 10:31:28;;;;;;;1.32;0.60;;;;;;;;;;1855871;76;27040;-41
2022/12/09 10:33:55;;;;;;;0.75;0.57;;;;;;;;;;1852833;76;26213;-37
2022/12/09 10:36:24;;;;;;;0.40;0.40;;;;;;;;;;1853621;75;26234;-44
2022/12/09 10:38:51;;;;;;;0.42;0.42;;;;;;;;;;1852091;76;26214;-40
2022/12/09 10:43:33;;;;;;;0.50;0.50;;;;;;;;;;1853882;75;26137;-51
2022/12/09 10:43:49;;;;;;;0.40;0.40;;;;;;;;;;1849313;76;26369;-37
2022/12/09 10:46:17;;;;;;;0.40;0.40;;;;;;;;;;1853570;75;26210;-37
2022/12/09 10:48:49;;;;;;;1.57;0.60;;;;;;;;;;1854555;75;26179;-40
2022/12/09 10:51:17;;;;;;;0.50;0.50;;;;;;;;;;1850107;76;28086;-42
2022/12/09 10:53:55;;;;;;;0.60;0.60;;;;;;;;;;1853488;76;26822;-42
2022/12/09 10:56:24;;;;;;;1.85;0.50;;;;;;;;;;1854904;76;26809;-40
2022/12/09 10:58:53;;;;;;;0.65;0.50;;;;;;;;;;1853896;76;26726;-52
2022/12/09 11:01:20;;;;;;;0.50;0.50;;;;;;;;;;1820703;76;26699;-49
2022/12/09 11:03:52;;;;;;;0.40;0.40;;;;;;;;;;1857434;75;26569;-54
2022/12/09 11:06:24;;;;;;;1.98;0.50;;;;;;;;;;1856482;75;26641;-39
2022/12/09 11:08:55;;;;;;;0.55;0.55;;;;;;;;;;1853728;76;26300;-58
2022/12/09 11:11:40;;;;;;;0.60;0.60;;;;;;;;;;1849710;76;26215;-36
2022/12/09 11:14:26;;;;;;;1.45;0.68;;;;;;;;;;1842729;77;26159;-39
2022/12/09 11:16:54;;;;;;;0.70;0.70;;;;;;;;;;1842450;77;26223;-42
2022/12/09 11:19:29;;;;;;;1.27;0.55;;;;;;;;;;1844308;76;26245;-37
2022/12/09 11:22:16;;;;;;;0.70;0.70;;;;;;;;;;1846842;77;26207;-38
2022/12/09 11:24:43;;;;;;;0.95;0.60;;;;;;;;;;1766018;80;26747;-41
2022/12/09 11:27:24;;;;;;;0.60;0.60;;;;;;;;;;1770422;80;26272;-45
2022/12/09 11:30:09;;;;;;;0.60;0.60;;;;;;;;;;1804385;77;26206;-41
2022/12/09 11:32:38;;;;;;;1.10;0.65;;;;;;;;;;1850854;77;26219;-45
2022/12/09 11:35:07;;;;;;;0.60;0.60;;;;;;;;;;1843264;76;26207;-50
2022/12/09 11:37:36;;;;;;;0.75;0.60;;;;;;;;;;1846671;76;26327;-42
2022/12/09 11:40:04;;;;;;;0.68;0.60;;;;;;;;;;1845762;77;26163;-42
2022/12/09 11:42:31;;;;;;;0.60;0.60;;;;;;;;;;1843048;77;26209;-56
2022/12/09 11:45:06;;;;;;;0.53;0.53;;;;;;;;;;1852446;77;26219;-38
2022/12/09 11:47:34;;;;;;;0.50;0.50;;;;;;;;;;1843447;77;26202;-54
2022/12/09 11:50:22;;;;;;;0.70;0.70;;;;;;;;;;1847287;76;26191;-47
2022/12/09 11:52:51;;;;;;;0.60;0.60;;;;;;;;;;1845192;76;26301;-39
2022/12/09 11:55:20;;;;;;;0.60;0.60;;;;;;;;;;1833857;76;26258;-38
2022/12/09 11:57:48;;;;;;;0.80;0.60;;;;;;;;;;1846052;77;26260;-42
2022/12/09 12:00:17;;;;;;;1.22;0.60;;;;;;;;;;1847751;77;26279;-36
2022/12/09 12:02:46;;;;;;;4.20;0.70;;;;;;;;;;1847160;76;26269;-56
2022/12/09 12:05:18;;;;;;;0.60;0.60;;;;;;;;;;1845049;77;26290;-40
2022/12/09 12:08:03;;;;;;;4.10;0.80;;;;;;;;;;1846427;76;26308;-38
2022/12/09 12:10:34;;;;;;;1.00;0.60;;;;;;;;;;1847140;76;26668;-45
2022/12/09 12:13:03;;;;;;;0.88;0.80;;;;;;;;;;1840222;76;26719;-48
2022/12/09 12:15:44;;;;;;;0.60;0.60;;;;;;;;;;1840305;77;26256;-37
2022/12/09 12:18:19;;;;;;;2.27;0.70;;;;;;;;;;1840278;77;26175;-38
2022/12/09 12:20:48;;;;;;;2.10;0.82;;;;;;;;;;1836128;77;26739;-46
2022/12/09 12:23:19;;;;;;;0.60;0.60;;;;;;;;;;1836525;77;26695;-38
2022/12/09 12:25:51;;;;;;;0.95;0.50;;;;;;;;;;1839165;77;26152;-37
2022/12/09 12:28:20;;;;;;;1.22;0.68;;;;;;;;;;1836004;76;26701;-44
2022/12/09 12:30:51;;;;;;;0.57;0.57;;;;;;;;;;1838449;77;26774;-45
2022/12/09 12:33:23;;;;;;;0.70;0.70;;;;;;;;;;1841683;77;26180;-56
2022/12/09 12:36:01;;;;;;;1.65;0.60;;;;;;;;;;1837562;77;26654;-39
2022/12/09 12:38:36;;;;;;;0.60;0.60;;;;;;;;;;1725019;82;26327;-42
2022/12/09 12:41:04;;;;;;;2.65;0.60;;;;;;;;;;1835960;77;26602;-44
2022/12/09 12:46:54;;;;;;;0.65;0.65;;;;;;;;;;1838448;77;26168;-47
2022/12/09 12:49:40;;;;;;;1.40;0.80;;;;;;;;;;1842674;77;26167;-40
2022/12/09 12:52:11;;;;;;;0.60;0.60;;;;;;;;;;1840414;77;26598;-46
2022/12/09 12:54:43;;;;;;;0.62;0.62;;;;;;;;;;1840850;77;26253;-47
2022/12/09 12:57:18;;;;;;;0.60;0.60;;;;;;;;;;1843485;77;26675;-53
2022/12/09 12:59:52;;;;;;;0.68;0.60;;;;;;;;;;1842416;76;26618;-39
2022/12/09 13:02:33;;;;;;;0.60;0.60;;;;;;;;;;1841220;77;26221;-47
2022/12/09 13:05:02;;;;;;;0.50;0.50;;;;;;;;;;1841653;77;26650;-42
2022/12/09 13:07:31;;;;;;;0.75;0.75;;;;;;;;;;1837420;77;26713;-42
2022/12/09 13:10:00;;;;;;;0.50;0.50;;;;;;;;;;1839486;77;26678;-40
2022/12/09 13:15:15;;;;;;;0.47;0.47;;;;;;;;;;1859099;75;26675;-41
2022/12/09 13:17:43;;;;;;;0.70;0.70;;;;;;;;;;1862400;75;26784;-38
2022/12/09 13:20:12;;;;;;;2.20;0.40;;;;;;;;;;1859068;76;26171;-44
2022/12/09 13:22:44;;;;;;;0.50;0.50;;;;;;;;;;1858235;76;26195;-57
2022/12/09 13:25:29;;;;;;;0.60;0.60;;;;;;;;;;1862247;76;26268;-42
2022/12/09 13:28:01;;;;;;;0.60;0.60;;;;;;;;;;1862784;75;26172;-37
2022/12/09 13:30:32;;;;;;;0.40;0.40;;;;;;;;;;1864753;75;26728;-48
2022/12/09 13:33:07;;;;;;;1.47;0.60;;;;;;;;;;1860193;75;27032;-54
2022/12/09 13:35:39;;;;;;;0.60;0.60;;;;;;;;;;1864126;75;26218;-41
2022/12/09 13:38:08;;;;;;;0.50;0.50;;;;;;;;;;1862507;75;26197;-51
2022/12/09 13:40:37;;;;;;;0.50;0.50;;;;;;;;;;1834237;76;26265;-40
2022/12/09 13:43:06;;;;;;;0.50;0.50;;;;;;;;;;1862385;75;26262;-43
2022/12/09 13:45:43;;;;;;;0.57;0.50;;;;;;;;;;1861759;76;26790;-38
2022/12/09 13:48:12;;;;;;;0.50;0.50;;;;;;;;;;1864270;75;26820;-45
2022/12/09 13:50:59;;;;;;;0.50;0.50;;;;;;;;;;1862213;76;26587;-42
2022/12/09 13:53:28;;;;;;;0.60;0.60;;;;;;;;;;1864147;75;26335;-39
2022/12/09 13:55:57;;;;;;;0.57;0.57;;;;;;;;;;1861394;76;26236;-37
2022/12/09 13:58:42;;;;;;;0.57;0.57;;;;;;;;;;1860917;76;26266;-38
2022/12/09 14:01:14;;;;;;;0.50;0.50;;;;;;;;;;1860051;76;26759;-48
2022/12/09 14:03:59;;;;;;;0.40;0.40;;;;;;;;;;1859067;75;26282;-41
2022/12/09 14:06:34;;;;;;;0.75;0.55;;;;;;;;;;1860607;76;26248;-43
2022/12/09 14:09:05;;;;;;;0.50;0.50;;;;;;;;;;1860570;76;26218;-43
2022/12/09 14:11:34;;;;;;;0.50;0.50;;;;;;;;;;1862863;76;26716;-43
2022/12/09 14:14:19;;;;;;;0.50;0.50;;;;;;;;;;1829127;76;26594;-41
2022/12/09 14:16:47;;;;;;;0.60;0.60;;;;;;;;;;1844879;77;26219;-40
2022/12/09 14:19:33;;;;;;;0.70;0.70;;;;;;;;;;1839695;76;26157;-39
2022/12/09 14:22:15;;;;;;;0.70;0.70;;;;;;;;;;1843249;76;26590;-38
2022/12/09 14:24:43;;;;;;;0.75;0.75;;;;;;;;;;1843482;76;26767;-39
2022/12/09 14:27:12;;;;;;;0.70;0.70;;;;;;;;;;1839697;76;26216;-42
2022/12/09 14:29:50;;;;;;;0.70;0.70;;;;;;;;;;1838459;76;26221;-40
2022/12/09 14:32:22;;;;;;;0.68;0.68;;;;;;;;;;1846902;76;26659;-36
2022/12/09 14:35:00;;;;;;;0.72;0.72;;;;;;;;;;1839426;76;26200;-40
2022/12/09 14:37:31;;;;;;;0.60;0.60;;;;;;;;;;1840905;76;26834;-36
2022/12/09 14:40:00;;;;;;;0.80;0.80;;;;;;;;;;1841491;76;26218;-35
2022/12/09 14:42:29;;;;;;;0.60;0.60;;;;;;;;;;1839760;76;26701;-43
2022/12/09 14:44:58;;;;;;;0.65;0.65;;;;;;;;;;1840925;76;26590;-41
2022/12/09 14:47:29;;;;;;;0.72;0.72;;;;;;;;;;1843428;76;26681;-48
2022/12/09 14:49:58;;;;;;;0.50;0.50;;;;;;;;;;1838920;76;26649;-46
2022/12/09 14:52:32;;;;;;;0.70;0.70;;;;;;;;;;1839217;76;26177;-37
2022/12/09 14:55:01;;;;;;;0.57;0.57;;;;;;;;;;1841379;76;26281;-39
2022/12/09 14:57:30;;;;;;;0.70;0.70;;;;;;;;;;1844105;76;25980;-39
2022/12/09 14:59:57;;;;;;;0.70;0.70;;;;;;;;;;1838403;76;26172;-44
2022/12/09 15:02:28;;;;;;;0.60;0.60;;;;;;;;;;1844099;76;26199;-41